Time;durP1;ratioP1;P1;durP2;ratioP2;P2;SDS_P1;SDS_P2;PMS_P1;PMS_P2;Temp;Humidity;BMP_temperature;BMP_pressure;BME280_temperature;BME280_humidity;BME280_pressure;Samples;Min_cycle;Max_cycle;Signal;HPM_P1;HPM_P2
2022/05/28 00:01:41;;;;;;;2.43;2.23;;;17.20;99.90;;;;;;4926952;29;20451;-61
2022/05/28 00:04:16;;;;;;;1.93;1.60;;;17.10;99.90;;;;;;4925979;29;20905;-61
2022/05/28 00:06:49;;;;;;;2.53;1.57;;;16.70;99.90;;;;;;4926759;29;20468;-61
2022/05/28 00:09:20;;;;;;;2.10;1.80;;;16.40;99.90;;;;;;4925693;29;20470;-61
2022/05/28 00:11:51;;;;;;;2.87;2.57;;;16.00;99.90;;;;;;4926751;29;20498;-61
2022/05/28 00:14:22;;;;;;;6.57;3.50;;;15.50;99.90;;;;;;4926233;29;20447;-61
2022/05/28 00:16:54;;;;;;;5.07;2.30;;;14.90;99.90;;;;;;4914594;29;20463;-60
2022/05/28 00:19:31;;;;;;;4.87;2.00;;;14.90;99.90;;;;;;4907053;29;20495;-60
2022/05/28 00:22:02;;;;;;;2.60;1.77;;;14.90;99.90;;;;;;4907584;29;20459;-61
2022/05/28 00:24:35;;;;;;;2.00;1.60;;;14.70;99.90;;;;;;4906339;29;20459;-60
2022/05/28 00:27:06;;;;;;;1.90;1.80;;;14.40;99.90;;;;;;4920105;29;20450;-61
2022/05/28 00:29:45;;;;;;;2.53;1.80;;;14.30;99.90;;;;;;4926731;29;20435;-60
2022/05/28 00:32:17;;;;;;;2.57;1.90;;;14.40;99.90;;;;;;4926856;29;20486;-61
2022/05/28 00:34:52;;;;;;;2.00;1.83;;;14.50;99.90;;;;;;4925836;29;20451;-60
2022/05/28 00:37:23;;;;;;;2.23;1.87;;;14.60;99.90;;;;;;4926392;29;20530;-61
2022/05/28 00:39:54;;;;;;;2.00;1.80;;;14.60;99.90;;;;;;4925244;29;20451;-61
2022/05/28 00:42:24;;;;;;;2.50;2.30;;;14.60;99.90;;;;;;4926494;29;20568;-60
2022/05/28 00:44:55;;;;;;;3.40;2.90;;;14.60;99.90;;;;;;4925974;29;20498;-61
2022/05/28 00:47:26;;;;;;;3.33;2.50;;;14.60;99.90;;;;;;4926710;29;20435;-60
2022/05/28 00:50:05;;;;;;;3.63;2.67;;;14.80;99.90;;;;;;4925822;29;20553;-60
2022/05/28 00:52:36;;;;;;;2.70;2.20;;;15.00;99.90;;;;;;4926223;29;20500;-61
2022/05/28 00:55:07;;;;;;;3.00;2.00;;;15.30;99.90;;;;;;4910692;29;20962;-61
2022/05/28 00:57:40;;;;;;;1.93;1.63;;;15.50;99.90;;;;;;4907095;29;20462;-60
2022/05/28 01:00:25;;;;;;;2.20;1.63;;;15.30;99.90;;;;;;4906861;29;20439;-60
2022/05/28 01:03:08;;;;;;;1.87;1.77;;;15.10;99.90;;;;;;4907699;29;21261;-61
2022/05/28 01:05:49;;;;;;;1.73;1.60;;;15.20;99.90;;;;;;4907082;29;20435;-61
2022/05/28 01:08:27;;;;;;;2.43;2.17;;;15.20;99.90;;;;;;4907201;29;20455;-61
2022/05/28 01:11:13;;;;;;;2.17;1.97;;;15.10;99.90;;;;;;4905706;29;20858;-61
2022/05/28 01:13:50;;;;;;;2.57;2.30;;;15.20;99.90;;;;;;4906410;29;20507;-60
2022/05/28 01:16:26;;;;;;;2.90;2.27;;;15.10;99.90;;;;;;4906993;29;20459;-61
2022/05/28 01:19:03;;;;;;;2.80;2.33;;;15.00;99.90;;;;;;4906531;29;20468;-61
2022/05/28 01:21:44;;;;;;;3.87;3.40;;;15.10;99.90;;;;;;4906920;29;20531;-60
2022/05/28 01:24:21;;;;;;;3.33;3.03;;;15.10;99.90;;;;;;4906166;29;20462;-60
2022/05/28 01:27:02;;;;;;;3.40;3.10;;;15.10;99.90;;;;;;4917609;29;20473;-60
2022/05/28 01:29:39;;;;;;;4.57;4.17;;;15.10;99.90;;;;;;4925366;29;20451;-60
2022/05/28 01:32:11;;;;;;;4.07;3.40;;;15.10;99.90;;;;;;4925719;29;20482;-60
2022/05/28 01:34:48;;;;;;;3.80;3.50;;;15.00;99.90;;;;;;4925244;29;20450;-60
2022/05/28 01:37:20;;;;;;;3.10;2.90;;;15.00;99.90;;;;;;4926377;29;20456;-60
2022/05/28 01:39:53;;;;;;;3.80;3.23;;;14.90;99.90;;;;;;4927715;29;20465;-61
2022/05/28 01:42:30;;;;;;;3.67;3.37;;;15.00;99.90;;;;;;4929545;29;20913;-60
2022/05/28 01:45:07;;;;;;;4.27;3.37;;;15.10;99.90;;;;;;4928134;29;21115;-60
2022/05/28 01:47:38;;;;;;;5.47;4.30;;;15.10;99.90;;;;;;4928669;29;20450;-61
2022/05/28 01:50:12;;;;;;;5.03;3.33;;;15.10;99.90;;;;;;4928530;29;20576;-61
2022/05/28 01:52:44;;;;;;;5.30;3.60;;;15.20;99.90;;;;;;4928636;29;20504;-61
2022/05/28 01:55:16;;;;;;;4.87;4.43;;;15.30;99.90;;;;;;4927147;29;20439;-61
2022/05/28 01:57:49;;;;;;;6.40;5.80;;;15.30;99.90;;;;;;4928984;29;20443;-61
2022/05/28 02:00:21;;;;;;;5.80;5.40;;;15.20;99.90;;;;;;4928502;29;20454;-61
2022/05/28 02:02:54;;;;;;;5.97;5.47;;;15.30;99.90;;;;;;4928793;29;20454;-60
2022/05/28 02:05:32;;;;;;;5.73;5.20;;;15.30;99.90;;;;;;4928042;29;20455;-61
2022/05/28 02:08:03;;;;;;;4.40;4.00;;;15.40;99.90;;;;;;4928787;29;20768;-61
2022/05/28 02:10:34;;;;;;;4.40;4.00;;;15.40;99.90;;;;;;4927359;29;20541;-61
2022/05/28 02:13:15;;;;;;;5.10;4.70;;;15.40;99.90;;;;;;4928869;29;20497;-61
2022/05/28 02:15:55;;;;;;;4.90;4.03;;;15.40;99.90;;;;;;4928375;29;20446;-61
2022/05/28 02:18:32;;;;;;;4.13;3.83;;;15.40;99.90;;;;;;4928382;29;20454;-61
2022/05/28 02:21:08;;;;;;;5.63;4.43;;;15.50;99.90;;;;;;4928339;29;20454;-61
2022/05/28 02:23:47;;;;;;;4.83;4.27;;;15.40;99.90;;;;;;4928233;29;20467;-61
2022/05/28 02:26:26;;;;;;;6.23;5.00;;;15.30;99.90;;;;;;4927722;29;20465;-61
2022/05/28 02:29:01;;;;;;;5.93;4.67;;;15.20;99.90;;;;;;4927866;29;20846;-61
2022/05/28 02:31:34;;;;;;;4.67;4.10;;;15.10;99.90;;;;;;4928069;29;20892;-61
2022/05/28 02:34:05;;;;;;;6.97;4.70;;;15.10;99.90;;;;;;4928023;29;20509;-60
2022/05/28 02:37:00;;;;;;;4.90;4.37;;;14.90;99.90;;;;;;4927504;29;20450;-60
2022/05/28 02:39:31;;;;;;;5.93;4.67;;;15.00;99.90;;;;;;4926854;29;21161;-60
2022/05/28 02:42:01;;;;;;;5.53;4.97;;;14.90;99.90;;;;;;4928245;29;20784;-60
2022/05/28 02:44:34;;;;;;;15.57;12.17;;;14.90;99.90;;;;;;4927033;29;20478;-60
2022/05/28 02:47:11;;;;;;;13.50;10.30;;;14.80;99.90;;;;;;4927717;29;20469;-61
2022/05/28 02:49:41;;;;;;;19.20;13.43;;;14.80;99.90;;;;;;4926330;29;20443;-62
2022/05/28 02:52:15;;;;;;;33.17;21.20;;;14.80;99.90;;;;;;4928073;29;20447;-61
2022/05/28 02:54:45;;;;;;;15.50;10.83;;;14.70;99.90;;;;;;4926216;29;20458;-61
2022/05/28 02:57:16;;;;;;;11.13;7.50;;;14.70;99.90;;;;;;4927749;29;20474;-61
2022/05/28 02:59:49;;;;;;;7.87;6.60;;;14.70;99.90;;;;;;4908153;29;20551;-61
2022/05/28 03:02:19;;;;;;;5.13;4.60;;;14.70;99.90;;;;;;4908458;29;20467;-61
2022/05/28 03:04:51;;;;;;;8.67;5.83;;;14.70;99.90;;;;;;4908158;29;20454;-61
2022/05/28 03:07:22;;;;;;;6.23;5.53;;;14.70;99.90;;;;;;4908632;29;20475;-61
2022/05/28 03:09:56;;;;;;;5.70;5.20;;;14.60;99.90;;;;;;4907350;29;20483;-61
2022/05/28 03:12:27;;;;;;;5.03;4.63;;;14.70;99.90;;;;;;4908255;29;20470;-61
2022/05/28 03:14:59;;;;;;;8.20;5.13;;;14.70;99.90;;;;;;4907844;29;20467;-61
2022/05/28 03:17:33;;;;;;;5.37;4.87;;;14.70;99.90;;;;;;4908175;29;20452;-61
2022/05/28 03:20:04;;;;;;;4.90;4.60;;;14.60;99.90;;;;;;4908113;29;20446;-61
2022/05/28 03:22:38;;;;;;;7.07;5.77;;;14.60;99.90;;;;;;4908424;29;20443;-61
2022/05/28 03:25:09;;;;;;;5.47;4.97;;;14.50;99.90;;;;;;4906649;29;20452;-61
2022/05/28 03:27:40;;;;;;;4.93;4.53;;;14.40;99.90;;;;;;4924757;29;20458;-61
2022/05/28 03:30:13;;;;;;;5.33;4.83;;;14.40;99.90;;;;;;4926699;29;20457;-61
2022/05/28 03:32:44;;;;;;;5.87;5.27;;;14.40;99.90;;;;;;4926905;29;20843;-61
2022/05/28 03:35:15;;;;;;;5.37;4.87;;;14.40;99.90;;;;;;4926513;29;20750;-61
2022/05/28 03:37:50;;;;;;;6.30;5.70;;;14.30;99.90;;;;;;4927117;29;20431;-61
2022/05/28 03:40:21;;;;;;;6.80;4.90;;;14.40;99.90;;;;;;4925694;29;20450;-61
2022/05/28 03:42:52;;;;;;;4.23;3.90;;;14.30;99.90;;;;;;4926746;29;20454;-61
2022/05/28 03:45:28;;;;;;;5.20;4.40;;;14.30;99.90;;;;;;4925888;29;20478;-61
2022/05/28 03:47:58;;;;;;;5.60;4.27;;;14.30;99.90;;;;;;4926356;29;20938;-61
2022/05/28 03:50:34;;;;;;;5.60;4.73;;;14.30;99.90;;;;;;4926200;29;20450;-61
2022/05/28 03:53:05;;;;;;;8.53;4.30;;;14.40;99.90;;;;;;4926873;29;20431;-61
2022/05/28 03:55:37;;;;;;;8.10;4.20;;;14.30;99.90;;;;;;4925135;29;20455;-61
2022/05/28 03:58:08;;;;;;;5.67;4.13;;;14.20;99.90;;;;;;4919753;29;20547;-61
2022/05/28 04:00:42;;;;;;;4.97;4.40;;;14.20;99.90;;;;;;4907194;29;20470;-61
2022/05/28 04:03:13;;;;;;;5.07;4.63;;;14.20;99.90;;;;;;4907500;29;20471;-61
2022/05/28 04:05:43;;;;;;;5.07;4.50;;;14.20;99.90;;;;;;4906837;29;20432;-61
2022/05/28 04:08:15;;;;;;;5.00;4.50;;;14.10;99.90;;;;;;4907679;29;20454;-61
2022/05/28 04:10:46;;;;;;;6.70;4.70;;;14.00;99.90;;;;;;4906303;29;20471;-61
2022/05/28 04:13:17;;;;;;;4.70;4.30;;;13.90;99.90;;;;;;4907398;29;20499;-61
2022/05/28 04:15:53;;;;;;;5.00;4.50;;;13.90;99.90;;;;;;4906826;29;20466;-61
2022/05/28 04:18:23;;;;;;;5.20;4.77;;;13.90;99.90;;;;;;4907167;29;20525;-61
2022/05/28 04:20:54;;;;;;;5.93;5.43;;;13.90;99.90;;;;;;4907021;29;20432;-62
2022/05/28 04:23:25;;;;;;;6.13;5.17;;;13.80;99.90;;;;;;4907443;29;20443;-61
2022/05/28 04:25:57;;;;;;;6.37;5.17;;;13.80;99.90;;;;;;4909465;29;20478;-61
2022/05/28 04:28:28;;;;;;;6.23;5.40;;;13.80;99.90;;;;;;4925918;29;20465;-61
2022/05/28 04:31:10;;;;;;;6.70;6.10;;;13.90;99.90;;;;;;4925757;29;20458;-61
2022/05/28 04:33:44;;;;;;;6.17;5.67;;;13.80;99.90;;;;;;4925564;29;20509;-61
2022/05/28 04:36:15;;;;;;;7.53;6.70;;;13.80;99.90;;;;;;4925578;29;20435;-61
2022/05/28 04:38:46;;;;;;;7.63;6.20;;;13.70;99.90;;;;;;4925582;29;20439;-61
2022/05/28 04:41:17;;;;;;;6.67;5.77;;;13.70;99.90;;;;;;4925752;29;20459;-61
2022/05/28 04:43:50;;;;;;;6.60;5.97;;;13.60;99.90;;;;;;4925437;29;20542;-61
2022/05/28 04:46:22;;;;;;;7.40;6.17;;;13.70;99.90;;;;;;4925364;29;20461;-61
2022/05/28 04:48:53;;;;;;;7.73;6.13;;;13.60;99.90;;;;;;4925337;29;20864;-61
2022/05/28 04:51:24;;;;;;;6.33;5.20;;;13.50;99.90;;;;;;4925875;29;20462;-61
2022/05/28 04:53:58;;;;;;;5.20;4.70;;;13.50;99.90;;;;;;4924961;29;20605;-61
2022/05/28 04:56:36;;;;;;;6.90;5.03;;;13.50;99.90;;;;;;4925465;29;20604;-61
2022/05/28 04:59:07;;;;;;;5.40;4.90;;;13.50;99.90;;;;;;4925236;29;20455;-61
2022/05/28 05:01:45;;;;;;;4.60;4.20;;;13.50;99.90;;;;;;4925785;29;20455;-61
2022/05/28 05:04:21;;;;;;;5.80;4.73;;;13.50;99.90;;;;;;4925327;29;20454;-61
2022/05/28 05:06:52;;;;;;;5.00;4.50;;;13.50;99.90;;;;;;4925281;29;20458;-61
2022/05/28 05:09:23;;;;;;;4.87;4.30;;;13.50;99.90;;;;;;4924875;29;20479;-61
2022/05/28 05:11:54;;;;;;;5.20;4.70;;;13.50;99.90;;;;;;4925973;29;20462;-61
2022/05/28 05:14:25;;;;;;;5.03;4.63;;;13.50;99.90;;;;;;4929055;29;20498;-61
2022/05/28 05:16:57;;;;;;;5.80;4.77;;;13.60;99.90;;;;;;4929039;29;20469;-61
2022/05/28 05:19:29;;;;;;;7.00;5.60;;;13.60;99.90;;;;;;4928662;29;20454;-61
2022/05/28 05:22:00;;;;;;;7.57;6.40;;;13.60;99.90;;;;;;4928970;29;20454;-61
2022/05/28 05:24:33;;;;;;;6.00;5.50;;;13.60;99.90;;;;;;4926698;29;20439;-61
2022/05/28 05:27:07;;;;;;;15.43;5.90;;;13.60;99.90;;;;;;4909955;29;20467;-61
2022/05/28 05:29:38;;;;;;;6.70;5.63;;;13.60;99.90;;;;;;4909899;29;20471;-61
2022/05/28 05:32:13;;;;;;;6.03;5.00;;;13.50;99.90;;;;;;4910049;29;20459;-60
2022/05/28 05:34:45;;;;;;;4.93;4.53;;;13.40;99.90;;;;;;4909735;29;20499;-61
2022/05/28 05:37:16;;;;;;;6.00;4.80;;;13.40;99.90;;;;;;4909603;29;20539;-61
2022/05/28 05:39:49;;;;;;;5.30;4.80;;;13.30;99.90;;;;;;4909299;29;20440;-60
2022/05/28 05:42:22;;;;;;;5.57;5.03;;;13.30;99.90;;;;;;4910225;29;20459;-60
2022/05/28 05:44:53;;;;;;;5.67;5.20;;;13.30;99.90;;;;;;4909425;29;20506;-60
2022/05/28 05:47:26;;;;;;;6.23;5.73;;;13.30;99.90;;;;;;4909651;29;20542;-60
2022/05/28 05:49:59;;;;;;;5.30;4.80;;;13.30;99.90;;;;;;4909649;29;20463;-60
2022/05/28 05:52:33;;;;;;;5.43;4.93;;;13.20;99.90;;;;;;4909886;29;20451;-60
2022/05/28 05:55:09;;;;;;;4.77;4.37;;;13.30;99.90;;;;;;4923271;29;20493;-61
2022/05/28 05:57:46;;;;;;;5.63;5.13;;;13.20;99.90;;;;;;4928750;29;20522;-59
2022/05/28 06:00:20;;;;;;;5.43;4.93;;;13.20;99.90;;;;;;4928188;29;20470;-61
2022/05/28 06:02:52;;;;;;;5.77;5.17;;;13.20;99.90;;;;;;4928582;29;20457;-61
2022/05/28 06:05:23;;;;;;;6.73;5.60;;;13.10;99.90;;;;;;4928172;29;20560;-61
2022/05/28 06:07:55;;;;;;;6.40;5.57;;;13.10;99.90;;;;;;4927877;29;20461;-61
2022/05/28 06:10:28;;;;;;;5.80;5.20;;;13.10;99.90;;;;;;4927396;29;20495;-61
2022/05/28 06:12:59;;;;;;;5.77;5.00;;;13.10;99.90;;;;;;4928618;29;20431;-60
2022/05/28 06:15:30;;;;;;;8.23;5.57;;;13.10;99.90;;;;;;4927933;29;20494;-61
2022/05/28 06:18:02;;;;;;;9.00;5.63;;;13.10;99.90;;;;;;4927903;29;20470;-61
2022/05/28 06:20:39;;;;;;;5.80;4.83;;;13.20;99.90;;;;;;4927834;29;20458;-61
2022/05/28 06:23:10;;;;;;;7.30;5.87;;;13.10;99.90;;;;;;4928027;29;20459;-61
2022/05/28 06:25:41;;;;;;;6.83;5.60;;;13.10;99.90;;;;;;4925458;29;20439;-61
2022/05/28 06:31:01;;;;;;;6.97;6.27;;;13.10;99.90;;;;;;4907274;29;20522;-61
2022/05/28 06:33:42;;;;;;;6.27;5.67;;;13.10;99.90;;;;;;4908902;29;20884;-61
2022/05/28 06:36:17;;;;;;;7.00;5.83;;;13.10;99.90;;;;;;4908956;29;20526;-61
2022/05/28 06:38:48;;;;;;;6.50;5.90;;;13.10;99.90;;;;;;4907761;29;20475;-61
2022/05/28 06:41:19;;;;;;;6.30;5.70;;;13.20;99.90;;;;;;4908919;29;20588;-61
2022/05/28 06:43:52;;;;;;;8.63;6.17;;;13.20;99.90;;;;;;4908395;29;20428;-62
2022/05/28 06:46:22;;;;;;;6.80;6.20;;;13.10;99.90;;;;;;4909356;29;20502;-61
2022/05/28 06:48:55;;;;;;;8.40;6.00;;;13.00;99.90;;;;;;4907890;29;20552;-60
2022/05/28 06:51:29;;;;;;;6.23;5.63;;;13.10;99.90;;;;;;4908689;29;20465;-60
2022/05/28 06:53:59;;;;;;;6.90;6.20;;;13.00;99.90;;;;;;4907571;29;20463;-61
2022/05/28 06:56:30;;;;;;;6.73;5.50;;;13.00;99.90;;;;;;4908440;29;20567;-61
2022/05/28 06:59:03;;;;;;;6.10;5.53;;;13.00;99.90;;;;;;4907788;29;20459;-62
2022/05/28 07:01:38;;;;;;;8.23;6.17;;;12.90;99.90;;;;;;4908980;29;20446;-61
2022/05/28 07:04:11;;;;;;;9.37;5.17;;;12.90;99.90;;;;;;4908000;29;20456;-59
2022/05/28 07:06:44;;;;;;;6.83;5.50;;;12.90;99.90;;;;;;4908449;29;21010;-60
2022/05/28 07:09:14;;;;;;;6.93;5.27;;;12.90;99.90;;;;;;4906963;29;20466;-60
2022/05/28 07:11:47;;;;;;;5.67;5.07;;;13.00;99.90;;;;;;4908332;29;20455;-61
2022/05/28 07:14:18;;;;;;;7.00;6.10;;;12.90;99.90;;;;;;4907961;29;20436;-61
2022/05/28 07:16:51;;;;;;;6.40;5.00;;;12.90;99.90;;;;;;4924924;29;20974;-60
2022/05/28 07:19:26;;;;;;;5.57;4.97;;;12.90;99.90;;;;;;4926192;29;20461;-61
2022/05/28 07:21:57;;;;;;;7.47;5.63;;;12.90;99.90;;;;;;4927423;29;20482;-60
2022/05/28 07:24:38;;;;;;;6.10;5.60;;;13.00;99.90;;;;;;4926014;29;20915;-61
2022/05/28 07:27:14;;;;;;;5.60;5.10;;;13.00;99.90;;;;;;4926847;29;20459;-61
2022/05/28 07:29:46;;;;;;;5.53;4.93;;;13.00;99.90;;;;;;4926460;29;20468;-61
2022/05/28 07:32:16;;;;;;;5.40;4.70;;;12.90;99.90;;;;;;4927392;29;20450;-60
2022/05/28 07:34:51;;;;;;;5.20;4.50;;;12.90;99.90;;;;;;4925759;29;20447;-61
2022/05/28 07:37:24;;;;;;;7.33;5.10;;;12.90;99.90;;;;;;4926740;29;20461;-61
2022/05/28 07:39:58;;;;;;;7.50;5.07;;;12.80;99.90;;;;;;4925248;29;20531;-61
2022/05/28 07:42:32;;;;;;;5.37;4.87;;;12.80;99.90;;;;;;4926904;29;20446;-61
2022/05/28 07:45:05;;;;;;;5.87;4.50;;;12.80;99.90;;;;;;4926484;29;20522;-61
2022/05/28 07:47:36;;;;;;;5.73;5.13;;;12.80;99.90;;;;;;4918241;29;20954;-61
2022/05/28 07:50:10;;;;;;;5.70;5.10;;;12.70;99.90;;;;;;4907563;29;20754;-61
2022/05/28 07:52:40;;;;;;;5.30;4.50;;;12.60;99.90;;;;;;4907545;29;20462;-60
2022/05/28 07:55:14;;;;;;;5.83;4.47;;;12.50;99.90;;;;;;4921485;29;20455;-61
2022/05/28 07:57:48;;;;;;;5.40;4.70;;;12.40;99.90;;;;;;4926455;29;20459;-61
2022/05/28 08:00:19;;;;;;;5.87;4.90;;;12.40;99.90;;;;;;4925516;29;20951;-61
2022/05/28 08:02:50;;;;;;;6.20;5.20;;;12.30;99.90;;;;;;4926597;29;20443;-61
2022/05/28 08:05:26;;;;;;;5.60;4.67;;;12.30;99.90;;;;;;4926607;29;20444;-61
2022/05/28 08:07:57;;;;;;;6.83;5.30;;;12.20;99.90;;;;;;4925884;29;20458;-60
2022/05/28 08:10:33;;;;;;;5.53;4.90;;;12.10;99.90;;;;;;4924769;29;21052;-61
2022/05/28 08:13:06;;;;;;;5.70;5.20;;;12.10;99.90;;;;;;4926157;29;20455;-60
2022/05/28 08:15:41;;;;;;;5.33;4.93;;;12.00;99.90;;;;;;4925560;29;20473;-60
2022/05/28 08:18:13;;;;;;;6.03;5.20;;;11.90;99.90;;;;;;4923963;29;20439;-60
2022/05/28 08:23:33;;;;;;;5.43;4.90;;;11.80;99.90;;;;;;4907337;29;20456;-60
2022/05/28 08:26:04;;;;;;;6.50;5.77;;;11.80;99.90;;;;;;4905909;29;20602;-60
2022/05/28 08:28:37;;;;;;;5.60;5.07;;;11.80;99.90;;;;;;4906744;29;20502;-61
2022/05/28 08:31:11;;;;;;;7.13;5.83;;;11.80;99.90;;;;;;4906746;29;20473;-60
2022/05/28 08:33:45;;;;;;;6.00;5.50;;;11.70;99.90;;;;;;4907095;29;20498;-61
2022/05/28 08:36:17;;;;;;;6.10;5.50;;;11.70;99.90;;;;;;4911102;29;20450;-60
2022/05/28 08:38:48;;;;;;;8.70;5.93;;;11.70;99.90;;;;;;4925656;29;20815;-60
2022/05/28 08:41:22;;;;;;;9.10;6.10;;;11.80;99.90;;;;;;4925672;29;20526;-61
2022/05/28 08:44:04;;;;;;;9.17;5.53;;;11.80;99.90;;;;;;4925658;29;20466;-60
2022/05/28 08:46:39;;;;;;;6.80;6.10;;;11.80;99.90;;;;;;4925819;29;20582;-60
2022/05/28 08:49:13;;;;;;;7.77;5.70;;;11.90;99.90;;;;;;4929197;29;20477;-61
2022/05/28 08:51:49;;;;;;;7.13;6.20;;;12.00;99.90;;;;;;4929784;29;20447;-61
2022/05/28 08:54:27;;;;;;;9.40;6.50;;;11.90;99.90;;;;;;4929512;29;20450;-61
2022/05/28 08:57:02;;;;;;;7.20;6.23;;;12.00;99.90;;;;;;4929729;29;20458;-61
2022/05/28 08:59:35;;;;;;;8.30;5.67;;;12.10;99.90;;;;;;4929459;29;20454;-60
2022/05/28 09:02:12;;;;;;;6.20;5.60;;;12.00;99.90;;;;;;4929947;29;20591;-60
2022/05/28 09:04:44;;;;;;;6.17;5.57;;;12.00;99.90;;;;;;4929711;29;20477;-61
2022/05/28 09:07:18;;;;;;;6.70;5.53;;;12.00;99.90;;;;;;4929761;29;20508;-60
2022/05/28 09:09:50;;;;;;;6.50;5.33;;;12.00;99.90;;;;;;4928288;29;20434;-60
2022/05/28 09:12:30;;;;;;;6.77;6.17;;;12.00;99.90;;;;;;4930510;29;20798;-60
2022/05/28 09:15:21;;;;;;;6.13;5.60;;;12.00;99.90;;;;;;4929600;29;20474;-60
2022/05/28 09:17:57;;;;;;;6.50;5.60;;;12.00;99.90;;;;;;4929689;29;20463;-60
2022/05/28 09:20:38;;;;;;;7.30;5.57;;;12.10;99.90;;;;;;4929032;29;20451;-60
2022/05/28 09:23:10;;;;;;;6.57;5.97;;;12.10;99.90;;;;;;4929572;29;20839;-60
2022/05/28 09:25:46;;;;;;;9.03;5.50;;;12.10;99.90;;;;;;4928732;29;20454;-60
2022/05/28 09:28:36;;;;;;;6.60;6.00;;;12.10;99.90;;;;;;4929447;29;20464;-60
2022/05/28 09:31:23;;;;;;;6.77;5.67;;;12.10;99.90;;;;;;4928849;29;20462;-60
2022/05/28 09:34:09;;;;;;;8.47;6.40;;;12.10;99.90;;;;;;4929604;29;20462;-61
2022/05/28 09:36:49;;;;;;;7.80;6.80;;;12.10;99.90;;;;;;4929857;29;20740;-60
2022/05/28 09:39:36;;;;;;;8.50;6.43;;;12.10;99.90;;;;;;4928250;29;20450;-60
2022/05/28 09:42:14;;;;;;;6.80;5.47;;;12.10;99.90;;;;;;4929009;29;20542;-60
2022/05/28 09:44:59;;;;;;;6.57;5.50;;;12.10;99.90;;;;;;4928774;29;20481;-60
2022/05/28 09:47:46;;;;;;;6.00;5.40;;;12.00;99.90;;;;;;4928708;29;20498;-60
2022/05/28 09:50:24;;;;;;;6.07;5.47;;;11.90;99.90;;;;;;4928383;29;20450;-60
2022/05/28 09:55:58;;;;;;;6.37;5.73;;;11.90;99.90;;;;;;4908941;29;20455;-60
2022/05/28 09:58:32;;;;;;;6.63;6.03;;;11.80;99.90;;;;;;4909087;29;20473;-60
2022/05/28 10:01:08;;;;;;;7.00;6.30;;;11.60;99.90;;;;;;4909612;29;20455;-59
2022/05/28 10:06:45;;;;;;;8.23;7.43;;;11.80;99.90;;;;;;4909622;29;20495;-60
2022/05/28 10:09:19;;;;;;;12.33;8.23;;;11.80;99.90;;;;;;4908346;29;20459;-60
2022/05/28 10:12:04;;;;;;;9.20;8.23;;;11.80;99.90;;;;;;4909575;29;20474;-60
2022/05/28 10:14:42;;;;;;;8.47;7.67;;;11.80;99.90;;;;;;4908986;29;20463;-60
2022/05/28 10:17:25;;;;;;;9.20;8.30;;;11.80;99.90;;;;;;4909612;29;20944;-60
2022/05/28 10:19:58;;;;;;;8.70;7.30;;;11.80;99.90;;;;;;4909226;29;20442;-60
2022/05/28 10:22:30;;;;;;;8.50;7.33;;;11.80;99.90;;;;;;4909772;29;20462;-59
2022/05/28 10:25:17;;;;;;;9.63;7.23;;;11.80;99.90;;;;;;4908018;29;20467;-59
2022/05/28 10:27:52;;;;;;;7.93;7.20;;;11.80;99.90;;;;;;4909085;29;20495;-59
2022/05/28 10:30:34;;;;;;;9.07;8.03;;;11.80;99.90;;;;;;4909064;29;20455;-59
2022/05/28 10:33:08;;;;;;;15.30;8.40;;;11.80;99.90;;;;;;4909346;29;20455;-60
2022/05/28 10:35:39;;;;;;;6.60;6.00;;;11.80;99.90;;;;;;4908523;29;20451;-60
2022/05/28 10:38:16;;;;;;;7.80;7.00;;;11.70;99.90;;;;;;4908914;29;20451;-60
2022/05/28 10:40:52;;;;;;;6.93;6.23;;;11.70;99.90;;;;;;4908607;29;20758;-60
2022/05/28 10:43:29;;;;;;;7.97;7.13;;;11.70;99.90;;;;;;4912837;29;20435;-61
2022/05/28 10:46:09;;;;;;;8.50;6.70;;;11.70;99.90;;;;;;4927097;29;20521;-60
2022/05/28 10:49:11;;;;;;;7.47;6.87;;;11.70;99.90;;;;;;4927242;29;20498;-60
2022/05/28 10:51:56;;;;;;;6.93;6.30;;;11.70;99.90;;;;;;4908205;29;20462;-60
2022/05/28 10:54:40;;;;;;;8.40;7.33;;;11.70;99.90;;;;;;4916189;29;20474;-60
2022/05/28 10:57:31;;;;;;;7.40;6.37;;;11.70;99.90;;;;;;4927493;29;20593;-60
2022/05/28 11:00:13;;;;;;;7.47;5.77;;;11.70;99.90;;;;;;4927273;29;20462;-60
2022/05/28 11:03:13;;;;;;;6.40;5.80;;;11.70;99.90;;;;;;4927376;29;20450;-61
2022/05/28 11:06:08;;;;;;;7.07;6.10;;;11.70;99.90;;;;;;4926890;29;20459;-61
2022/05/28 11:08:50;;;;;;;9.73;6.40;;;11.70;99.90;;;;;;4908176;29;20519;-60
2022/05/28 11:11:45;;;;;;;5.90;5.40;;;11.60;99.90;;;;;;4907887;29;21052;-61
2022/05/28 11:14:36;;;;;;;7.17;6.27;;;11.60;99.90;;;;;;4908090;29;20439;-60
2022/05/28 11:17:23;;;;;;;6.63;5.00;;;11.60;99.90;;;;;;4908764;29;20543;-60
2022/05/28 11:20:12;;;;;;;7.50;5.50;;;11.70;99.90;;;;;;4908265;29;20436;-61
2022/05/28 11:23:03;;;;;;;5.03;4.60;;;11.70;99.90;;;;;;4908273;29;20460;-59
2022/05/28 11:25:55;;;;;;;5.80;5.20;;;11.70;99.90;;;;;;4906811;29;20463;-59
2022/05/28 11:28:59;;;;;;;5.80;5.20;;;11.70;99.90;;;;;;4907762;29;20499;-59
2022/05/28 11:31:41;;;;;;;4.20;3.87;;;11.70;99.90;;;;;;4908099;29;20455;-59
2022/05/28 11:34:22;;;;;;;6.20;4.87;;;11.70;99.90;;;;;;4907770;29;20451;-59
2022/05/28 11:39:50;;;;;;;4.80;4.40;;;11.70;99.90;;;;;;4905627;29;20463;-61
2022/05/28 11:42:31;;;;;;;5.47;4.50;;;11.70;99.90;;;;;;4907809;29;20459;-60
2022/05/28 11:45:08;;;;;;;6.20;4.50;;;11.80;99.90;;;;;;4906895;29;20494;-60
2022/05/28 11:47:48;;;;;;;4.63;4.23;;;11.90;99.90;;;;;;4907883;29;20487;-60
2022/05/28 11:53:31;;;;;;;4.33;3.93;;;11.90;99.90;;;;;;4908242;29;20435;-60
2022/05/28 11:56:07;;;;;;;8.70;4.60;;;11.80;99.90;;;;;;4925446;29;20451;-60
2022/05/28 11:58:42;;;;;;;5.80;4.60;;;11.80;99.90;;;;;;4926390;29;20451;-60
2022/05/28 12:01:20;;;;;;;4.13;3.60;;;11.70;99.90;;;;;;4926309;29;20547;-60
2022/05/28 12:03:55;;;;;;;4.20;3.80;;;11.70;99.90;;;;;;4925994;29;20458;-60
2022/05/28 12:06:34;;;;;;;5.37;4.00;;;11.60;99.90;;;;;;4926173;29;20431;-60
2022/05/28 12:09:20;;;;;;;5.20;4.10;;;11.70;99.90;;;;;;4925303;29;20490;-60
2022/05/28 12:12:23;;;;;;;4.10;3.67;;;11.70;99.90;;;;;;4926537;29;20438;-60
2022/05/28 12:15:24;;;;;;;4.50;4.10;;;11.70;99.90;;;;;;4926302;29;20469;-60
2022/05/28 12:18:01;;;;;;;5.93;4.03;;;11.70;99.90;;;;;;4926325;29;20461;-60
2022/05/28 12:20:36;;;;;;;5.03;4.50;;;11.70;99.90;;;;;;4925890;29;20451;-60
2022/05/28 12:23:09;;;;;;;4.50;4.10;;;11.70;99.90;;;;;;4926131;29;20481;-60
2022/05/28 12:25:41;;;;;;;4.03;3.60;;;11.80;99.90;;;;;;4924750;29;20447;-59
2022/05/28 12:28:24;;;;;;;5.40;4.03;;;11.80;99.90;;;;;;4925980;29;20527;-60
2022/05/28 12:31:02;;;;;;;6.47;4.20;;;11.80;99.90;;;;;;4926044;29;20641;-60
2022/05/28 12:33:54;;;;;;;4.20;3.70;;;11.80;99.90;;;;;;4924772;29;20462;-60
2022/05/28 12:36:29;;;;;;;3.77;3.43;;;11.70;99.90;;;;;;4926164;29;20464;-60
2022/05/28 12:39:06;;;;;;;3.67;3.37;;;11.70;99.90;;;;;;4925280;29;20442;-60
2022/05/28 12:41:50;;;;;;;;;;;;;;;;;;;;;
2022/05/28 12:44:26;;;;;;;4.80;3.00;;;11.70;99.90;;;;;;4925312;29;20483;-60
2022/05/28 12:47:02;;;;;;;4.37;3.57;;;11.70;99.90;;;;;;4925647;29;20450;-60
2022/05/28 12:49:50;;;;;;;3.63;3.27;;;11.70;99.90;;;;;;4925626;29;20517;-60
2022/05/28 12:52:39;;;;;;;5.93;3.27;;;11.80;99.90;;;;;;4925998;29;20461;-60
2022/05/28 12:55:35;;;;;;;3.50;3.20;;;11.80;99.90;;;;;;4924808;29;20531;-60
2022/05/28 12:58:10;;;;;;;4.60;4.00;;;11.80;99.90;;;;;;4926201;29;20444;-61
2022/05/28 13:00:50;;;;;;;5.50;3.97;;;11.70;99.90;;;;;;4925970;29;20430;-60
2022/05/28 13:03:26;;;;;;;4.80;3.63;;;11.60;99.90;;;;;;4926113;29;20450;-60
2022/05/28 13:06:09;;;;;;;3.80;3.40;;;11.60;99.90;;;;;;4925154;29;20459;-60
2022/05/28 13:08:49;;;;;;;4.70;4.20;;;11.70;99.90;;;;;;4925760;29;20493;-60
2022/05/28 13:11:38;;;;;;;4.80;4.40;;;11.70;99.90;;;;;;4925952;29;20454;-59
2022/05/28 13:14:51;;;;;;;4.63;3.70;;;11.80;99.90;;;;;;4925587;29;20545;-60
2022/05/28 13:17:38;;;;;;;4.63;4.00;;;11.80;99.90;;;;;;4925439;29;20462;-60
2022/05/28 13:20:21;;;;;;;4.63;4.10;;;11.90;99.90;;;;;;4925644;29;20947;-59
2022/05/28 13:23:11;;;;;;;4.20;3.90;;;11.90;99.90;;;;;;4925626;29;20472;-60
2022/05/28 13:26:23;;;;;;;4.60;3.87;;;11.90;99.90;;;;;;4924661;29;20455;-60
2022/05/28 13:29:42;;;;;;;4.80;4.40;;;11.90;99.90;;;;;;4925155;29;20505;-59
2022/05/28 13:32:18;;;;;;;4.90;4.50;;;11.90;99.90;;;;;;4921862;29;20462;-60
2022/05/28 13:34:58;;;;;;;6.23;4.27;;;12.00;99.90;;;;;;4928629;29;20450;-59
2022/05/28 13:37:31;;;;;;;4.90;4.40;;;12.10;99.90;;;;;;4929043;29;20454;-60
2022/05/28 13:40:04;;;;;;;4.63;4.23;;;12.10;99.90;;;;;;4915121;29;20456;-60
2022/05/28 13:42:38;;;;;;;5.53;4.70;;;12.00;99.90;;;;;;4910410;29;20459;-61
2022/05/28 13:45:12;;;;;;;4.40;4.00;;;12.00;99.90;;;;;;4909653;29;20483;-60
2022/05/28 13:47:44;;;;;;;5.00;4.20;;;12.10;99.90;;;;;;4909728;29;20451;-60
2022/05/28 13:50:18;;;;;;;4.63;3.87;;;12.10;99.90;;;;;;4909938;29;20495;-60
2022/05/28 13:52:50;;;;;;;4.77;4.37;;;12.20;99.90;;;;;;4910413;29;20435;-60